KHII/HII METAR and TAF weather

Enter ICAO airport designator
Station Type Date Time Source
KHII METAR 2024/06/15 22:35 UTC NOAA

KHII 152235Z AUTO 21009KT 10SM 44/M06 A2960 RMK AO1


Station Type Date Time Source
KHII Decoded METAR 2024/06/15 22:35 UTC NOAA

Station name not available
Jun 15, 2024 - 06:35 PM EDT / 2024.06.15 2235 UTC
Wind: from the SSW (210 degrees) at 10 MPH (9 KT):0
Visibility: 10 mile(s):0
Temperature: 111 F (44 C)
Dew Point: 21 F (-6 C)
Relative Humidity: 4%
Pressure (altimeter): 29.6 in. Hg (1002 hPa)
ob: KHII 152235Z AUTO 21009KT 10SM 44/M06 A2960 RMK AO1
cycle: 22

Station Type Date Time Source
KHII TAF UTC NOAA

Error!

Example: see airport list